sensor_id;sensor_type;location;lat;lon;timestamp;P1;durP1;ratioP1;P2;durP2;ratioP2
14858;SDS011;7521;51.700;6.874;2023-07-31T00:02:02;1.98;;;1.48;;
14858;SDS011;7521;51.700;6.874;2023-07-31T00:05:08;2.27;;;1.40;;
14858;SDS011;7521;51.700;6.874;2023-07-31T00:08:13;1.93;;;1.23;;
14858;SDS011;7521;51.700;6.874;2023-07-31T00:11:18;1.23;;;1.02;;
14858;SDS011;7521;51.700;6.874;2023-07-31T00:14:24;1.63;;;1.23;;
14858;SDS011;7521;51.700;6.874;2023-07-31T00:17:29;1.83;;;1.30;;
14858;SDS011;7521;51.700;6.874;2023-07-31T00:20:34;2.53;;;1.40;;
14858;SDS011;7521;51.700;6.874;2023-07-31T00:23:39;1.87;;;1.30;;
14858;SDS011;7521;51.700;6.874;2023-07-31T00:26:44;2.13;;;1.27;;
14858;SDS011;7521;51.700;6.874;2023-07-31T00:29:50;1.25;;;1.15;;
14858;SDS011;7521;51.700;6.874;2023-07-31T00:32:55;1.87;;;1.13;;
14858;SDS011;7521;51.700;6.874;2023-07-31T00:36:00;2.00;;;1.30;;
14858;SDS011;7521;51.700;6.874;2023-07-31T00:39:05;3.23;;;1.90;;
14858;SDS011;7521;51.700;6.874;2023-07-31T00:42:10;4.68;;;2.72;;
14858;SDS011;7521;51.700;6.874;2023-07-31T00:45:16;7.97;;;3.63;;
14858;SDS011;7521;51.700;6.874;2023-07-31T00:48:21;8.07;;;4.10;;
14858;SDS011;7521;51.700;6.874;2023-07-31T00:51:26;9.73;;;5.00;;
14858;SDS011;7521;51.700;6.874;2023-07-31T00:54:31;11.00;;;5.67;;
14858;SDS011;7521;51.700;6.874;2023-07-31T00:57:37;13.17;;;6.07;;
14858;SDS011;7521;51.700;6.874;2023-07-31T01:00:44;13.23;;;6.43;;
14858;SDS011;7521;51.700;6.874;2023-07-31T01:03:49;15.17;;;7.37;;
14858;SDS011;7521;51.700;6.874;2023-07-31T01:10:16;19.07;;;8.47;;
14858;SDS011;7521;51.700;6.874;2023-07-31T01:13:22;19.80;;;8.33;;
14858;SDS011;7521;51.700;6.874;2023-07-31T01:16:27;18.70;;;8.47;;
14858;SDS011;7521;51.700;6.874;2023-07-31T01:19:33;16.80;;;7.93;;
14858;SDS011;7521;51.700;6.874;2023-07-31T01:26:03;22.20;;;8.97;;
14858;SDS011;7521;51.700;6.874;2023-07-31T01:29:10;15.07;;;7.60;;
14858;SDS011;7521;51.700;6.874;2023-07-31T01:32:20;18.17;;;7.63;;
14858;SDS011;7521;51.700;6.874;2023-07-31T01:35:27;21.30;;;7.53;;
14858;SDS011;7521;51.700;6.874;2023-07-31T01:38:33;13.40;;;6.77;;
14858;SDS011;7521;51.700;6.874;2023-07-31T01:41:38;21.88;;;7.00;;
14858;SDS011;7521;51.700;6.874;2023-07-31T01:44:43;19.50;;;7.60;;
14858;SDS011;7521;51.700;6.874;2023-07-31T01:47:48;18.20;;;7.43;;
14858;SDS011;7521;51.700;6.874;2023-07-31T01:50:53;19.70;;;7.47;;
14858;SDS011;7521;51.700;6.874;2023-07-31T01:53:58;13.27;;;6.50;;
14858;SDS011;7521;51.700;6.874;2023-07-31T01:57:04;26.20;;;6.88;;
14858;SDS011;7521;51.700;6.874;2023-07-31T02:00:09;18.57;;;7.37;;
14858;SDS011;7521;51.700;6.874;2023-07-31T02:03:14;16.17;;;5.90;;
14858;SDS011;7521;51.700;6.874;2023-07-31T02:06:20;15.52;;;6.13;;
14858;SDS011;7521;51.700;6.874;2023-07-31T02:09:25;17.80;;;5.93;;
14858;SDS011;7521;51.700;6.874;2023-07-31T02:12:30;12.57;;;6.25;;
14858;SDS011;7521;51.700;6.874;2023-07-31T02:15:37;13.83;;;5.37;;
14858;SDS011;7521;51.700;6.874;2023-07-31T02:18:42;17.90;;;5.80;;
14858;SDS011;7521;51.700;6.874;2023-07-31T02:21:47;13.85;;;5.93;;
14858;SDS011;7521;51.700;6.874;2023-07-31T02:24:52;15.33;;;5.67;;
14858;SDS011;7521;51.700;6.874;2023-07-31T02:27:57;15.73;;;5.73;;
14858;SDS011;7521;51.700;6.874;2023-07-31T02:31:03;14.63;;;5.65;;
14858;SDS011;7521;51.700;6.874;2023-07-31T02:34:08;15.97;;;5.90;;
14858;SDS011;7521;51.700;6.874;2023-07-31T02:37:13;13.10;;;5.97;;
14858;SDS011;7521;51.700;6.874;2023-07-31T02:40:21;14.33;;;5.67;;
14858;SDS011;7521;51.700;6.874;2023-07-31T02:43:27;14.20;;;5.83;;
14858;SDS011;7521;51.700;6.874;2023-07-31T02:46:32;13.77;;;5.77;;
14858;SDS011;7521;51.700;6.874;2023-07-31T02:49:37;12.63;;;5.53;;
14858;SDS011;7521;51.700;6.874;2023-07-31T02:52:45;17.63;;;5.72;;
14858;SDS011;7521;51.700;6.874;2023-07-31T02:55:50;16.50;;;5.87;;
14858;SDS011;7521;51.700;6.874;2023-07-31T02:58:56;18.77;;;5.73;;
14858;SDS011;7521;51.700;6.874;2023-07-31T03:02:01;10.03;;;5.17;;
14858;SDS011;7521;51.700;6.874;2023-07-31T03:05:06;13.97;;;5.87;;
14858;SDS011;7521;51.700;6.874;2023-07-31T03:08:12;16.63;;;6.10;;
14858;SDS011;7521;51.700;6.874;2023-07-31T03:11:17;14.50;;;5.73;;
14858;SDS011;7521;51.700;6.874;2023-07-31T03:14:22;19.20;;;5.87;;
14858;SDS011;7521;51.700;6.874;2023-07-31T03:17:27;13.80;;;5.43;;
14858;SDS011;7521;51.700;6.874;2023-07-31T03:20:32;15.30;;;5.43;;
14858;SDS011;7521;51.700;6.874;2023-07-31T03:23:37;12.75;;;5.78;;
14858;SDS011;7521;51.700;6.874;2023-07-31T03:26:43;13.93;;;5.30;;
14858;SDS011;7521;51.700;6.874;2023-07-31T03:29:49;18.00;;;5.67;;
14858;SDS011;7521;51.700;6.874;2023-07-31T03:32:56;15.20;;;6.67;;
14858;SDS011;7521;51.700;6.874;2023-07-31T03:36:01;14.40;;;5.78;;
14858;SDS011;7521;51.700;6.874;2023-07-31T03:39:07;11.47;;;4.83;;
14858;SDS011;7521;51.700;6.874;2023-07-31T03:42:12;16.92;;;6.20;;
14858;SDS011;7521;51.700;6.874;2023-07-31T03:45:17;14.40;;;5.37;;
14858;SDS011;7521;51.700;6.874;2023-07-31T03:48:22;16.38;;;6.68;;
14858;SDS011;7521;51.700;6.874;2023-07-31T03:51:27;14.47;;;5.43;;
14858;SDS011;7521;51.700;6.874;2023-07-31T03:54:33;16.53;;;5.97;;
14858;SDS011;7521;51.700;6.874;2023-07-31T03:57:38;16.27;;;5.47;;
14858;SDS011;7521;51.700;6.874;2023-07-31T04:00:43;12.63;;;5.78;;
14858;SDS011;7521;51.700;6.874;2023-07-31T04:03:48;12.10;;;5.07;;
14858;SDS011;7521;51.700;6.874;2023-07-31T04:06:53;16.75;;;6.20;;
14858;SDS011;7521;51.700;6.874;2023-07-31T04:09:59;18.07;;;6.67;;
14858;SDS011;7521;51.700;6.874;2023-07-31T04:13:07;14.17;;;5.87;;
14858;SDS011;7521;51.700;6.874;2023-07-31T04:16:12;17.00;;;6.65;;
14858;SDS011;7521;51.700;6.874;2023-07-31T04:19:17;17.87;;;5.90;;
14858;SDS011;7521;51.700;6.874;2023-07-31T04:22:22;19.70;;;6.00;;
14858;SDS011;7521;51.700;6.874;2023-07-31T04:25:28;15.00;;;5.77;;
14858;SDS011;7521;51.700;6.874;2023-07-31T04:28:33;18.88;;;6.35;;
14858;SDS011;7521;51.700;6.874;2023-07-31T04:31:38;13.10;;;5.38;;
14858;SDS011;7521;51.700;6.874;2023-07-31T04:34:43;15.10;;;5.68;;
14858;SDS011;7521;51.700;6.874;2023-07-31T04:37:48;13.07;;;5.47;;
14858;SDS011;7521;51.700;6.874;2023-07-31T04:40:54;13.27;;;5.60;;
14858;SDS011;7521;51.700;6.874;2023-07-31T04:43:59;15.57;;;6.38;;
14858;SDS011;7521;51.700;6.874;2023-07-31T04:47:04;9.23;;;4.97;;
14858;SDS011;7521;51.700;6.874;2023-07-31T04:50:09;15.57;;;5.37;;
14858;SDS011;7521;51.700;6.874;2023-07-31T04:53:15;11.50;;;5.23;;
14858;SDS011;7521;51.700;6.874;2023-07-31T04:56:20;11.90;;;5.25;;
14858;SDS011;7521;51.700;6.874;2023-07-31T04:59:25;18.65;;;5.70;;
14858;SDS011;7521;51.700;6.874;2023-07-31T05:02:30;17.25;;;5.35;;
14858;SDS011;7521;51.700;6.874;2023-07-31T05:05:35;17.08;;;5.65;;
14858;SDS011;7521;51.700;6.874;2023-07-31T05:08:41;12.60;;;5.20;;
14858;SDS011;7521;51.700;6.874;2023-07-31T05:11:46;13.65;;;5.72;;
14858;SDS011;7521;51.700;6.874;2023-07-31T05:14:51;12.40;;;5.27;;
14858;SDS011;7521;51.700;6.874;2023-07-31T05:17:56;15.70;;;5.53;;
14858;SDS011;7521;51.700;6.874;2023-07-31T05:21:02;18.17;;;5.68;;
14858;SDS011;7521;51.700;6.874;2023-07-31T05:24:07;11.17;;;4.83;;
14858;SDS011;7521;51.700;6.874;2023-07-31T05:27:15;14.53;;;5.33;;
14858;SDS011;7521;51.700;6.874;2023-07-31T05:30:23;13.63;;;5.43;;
14858;SDS011;7521;51.700;6.874;2023-07-31T05:33:28;15.05;;;5.30;;
14858;SDS011;7521;51.700;6.874;2023-07-31T05:36:33;15.73;;;5.13;;
14858;SDS011;7521;51.700;6.874;2023-07-31T05:39:38;11.93;;;5.00;;
14858;SDS011;7521;51.700;6.874;2023-07-31T05:42:44;13.73;;;4.35;;
14858;SDS011;7521;51.700;6.874;2023-07-31T05:45:49;15.13;;;5.80;;
14858;SDS011;7521;51.700;6.874;2023-07-31T05:48:54;9.00;;;4.93;;
14858;SDS011;7521;51.700;6.874;2023-07-31T05:51:59;12.00;;;5.22;;
14858;SDS011;7521;51.700;6.874;2023-07-31T05:55:10;11.90;;;5.00;;
14858;SDS011;7521;51.700;6.874;2023-07-31T05:58:18;10.37;;;5.00;;
14858;SDS011;7521;51.700;6.874;2023-07-31T06:01:26;11.70;;;5.07;;
14858;SDS011;7521;51.700;6.874;2023-07-31T06:04:31;9.67;;;4.27;;
14858;SDS011;7521;51.700;6.874;2023-07-31T06:07:37;11.80;;;5.20;;
14858;SDS011;7521;51.700;6.874;2023-07-31T06:10:42;10.88;;;4.53;;
14858;SDS011;7521;51.700;6.874;2023-07-31T06:13:47;11.77;;;4.83;;
14858;SDS011;7521;51.700;6.874;2023-07-31T06:16:54;12.13;;;5.07;;
14858;SDS011;7521;51.700;6.874;2023-07-31T06:19:59;12.23;;;4.93;;
14858;SDS011;7521;51.700;6.874;2023-07-31T06:23:04;10.00;;;4.88;;
14858;SDS011;7521;51.700;6.874;2023-07-31T06:26:09;10.48;;;5.13;;
14858;SDS011;7521;51.700;6.874;2023-07-31T06:29:14;12.38;;;5.03;;
14858;SDS011;7521;51.700;6.874;2023-07-31T06:32:22;11.13;;;5.37;;
14858;SDS011;7521;51.700;6.874;2023-07-31T06:35:27;12.60;;;5.13;;
14858;SDS011;7521;51.700;6.874;2023-07-31T06:38:32;10.23;;;5.22;;
14858;SDS011;7521;51.700;6.874;2023-07-31T06:41:38;9.73;;;5.70;;
14858;SDS011;7521;51.700;6.874;2023-07-31T06:44:43;9.27;;;5.37;;
14858;SDS011;7521;51.700;6.874;2023-07-31T06:47:48;10.63;;;5.80;;
14858;SDS011;7521;51.700;6.874;2023-07-31T06:50:53;13.20;;;6.00;;
14858;SDS011;7521;51.700;6.874;2023-07-31T06:54:01;10.27;;;5.85;;
14858;SDS011;7521;51.700;6.874;2023-07-31T06:57:07;11.20;;;5.80;;
14858;SDS011;7521;51.700;6.874;2023-07-31T07:00:13;8.30;;;5.83;;
14858;SDS011;7521;51.700;6.874;2023-07-31T07:03:18;10.10;;;5.67;;
14858;SDS011;7521;51.700;6.874;2023-07-31T07:06:26;8.97;;;4.97;;
14858;SDS011;7521;51.700;6.874;2023-07-31T07:09:31;8.13;;;5.13;;
14858;SDS011;7521;51.700;6.874;2023-07-31T07:12:37;9.73;;;5.20;;
14858;SDS011;7521;51.700;6.874;2023-07-31T07:15:42;8.97;;;5.27;;
14858;SDS011;7521;51.700;6.874;2023-07-31T07:18:47;9.53;;;4.40;;
14858;SDS011;7521;51.700;6.874;2023-07-31T07:21:54;6.90;;;4.63;;
14858;SDS011;7521;51.700;6.874;2023-07-31T07:25:01;7.50;;;5.23;;
14858;SDS011;7521;51.700;6.874;2023-07-31T07:28:06;8.50;;;4.70;;
14858;SDS011;7521;51.700;6.874;2023-07-31T07:31:11;6.22;;;4.40;;
14858;SDS011;7521;51.700;6.874;2023-07-31T07:34:22;7.10;;;4.57;;
14858;SDS011;7521;51.700;6.874;2023-07-31T07:37:27;8.83;;;4.30;;
14858;SDS011;7521;51.700;6.874;2023-07-31T07:40:42;6.27;;;4.13;;
14858;SDS011;7521;51.700;6.874;2023-07-31T07:43:53;7.07;;;3.33;;
14858;SDS011;7521;51.700;6.874;2023-07-31T07:46:58;6.17;;;3.73;;
14858;SDS011;7521;51.700;6.874;2023-07-31T07:50:07;5.10;;;4.00;;
14858;SDS011;7521;51.700;6.874;2023-07-31T07:53:18;4.83;;;3.47;;
14858;SDS011;7521;51.700;6.874;2023-07-31T07:56:23;6.43;;;4.13;;
14858;SDS011;7521;51.700;6.874;2023-07-31T07:59:29;6.33;;;3.53;;
14858;SDS011;7521;51.700;6.874;2023-07-31T08:02:34;6.90;;;3.80;;
14858;SDS011;7521;51.700;6.874;2023-07-31T08:05:45;7.27;;;4.00;;
14858;SDS011;7521;51.700;6.874;2023-07-31T08:08:53;6.53;;;3.27;;
14858;SDS011;7521;51.700;6.874;2023-07-31T08:11:58;4.28;;;3.20;;
14858;SDS011;7521;51.700;6.874;2023-07-31T08:15:07;4.23;;;3.27;;
14858;SDS011;7521;51.700;6.874;2023-07-31T08:18:12;5.50;;;3.40;;
14858;SDS011;7521;51.700;6.874;2023-07-31T08:21:17;4.65;;;2.97;;
14858;SDS011;7521;51.700;6.874;2023-07-31T08:24:23;5.13;;;2.80;;
14858;SDS011;7521;51.700;6.874;2023-07-31T08:27:28;6.17;;;2.50;;
14858;SDS011;7521;51.700;6.874;2023-07-31T08:30:33;4.53;;;2.70;;
14858;SDS011;7521;51.700;6.874;2023-07-31T08:33:39;4.00;;;2.47;;
14858;SDS011;7521;51.700;6.874;2023-07-31T08:36:45;4.77;;;2.73;;
14858;SDS011;7521;51.700;6.874;2023-07-31T08:39:50;5.20;;;2.65;;
14858;SDS011;7521;51.700;6.874;2023-07-31T08:42:55;3.13;;;2.40;;
14858;SDS011;7521;51.700;6.874;2023-07-31T08:46:07;4.33;;;2.60;;
14858;SDS011;7521;51.700;6.874;2023-07-31T08:49:13;3.73;;;2.70;;
14858;SDS011;7521;51.700;6.874;2023-07-31T08:52:19;3.80;;;2.63;;
14858;SDS011;7521;51.700;6.874;2023-07-31T08:55:24;4.63;;;2.50;;
14858;SDS011;7521;51.700;6.874;2023-07-31T08:58:30;4.67;;;3.00;;
14858;SDS011;7521;51.700;6.874;2023-07-31T09:01:40;5.73;;;2.80;;
14858;SDS011;7521;51.700;6.874;2023-07-31T09:04:47;6.73;;;2.73;;
14858;SDS011;7521;51.700;6.874;2023-07-31T09:07:52;5.00;;;2.67;;
14858;SDS011;7521;51.700;6.874;2023-07-31T09:11:01;4.27;;;2.77;;
14858;SDS011;7521;51.700;6.874;2023-07-31T09:14:08;4.57;;;2.67;;
14858;SDS011;7521;51.700;6.874;2023-07-31T09:17:14;4.87;;;2.57;;
14858;SDS011;7521;51.700;6.874;2023-07-31T09:20:20;2.67;;;2.17;;
14858;SDS011;7521;51.700;6.874;2023-07-31T09:23:25;5.13;;;2.60;;
14858;SDS011;7521;51.700;6.874;2023-07-31T09:26:34;3.97;;;2.83;;
14858;SDS011;7521;51.700;6.874;2023-07-31T09:29:39;4.13;;;2.70;;
14858;SDS011;7521;51.700;6.874;2023-07-31T09:32:45;3.77;;;2.50;;
14858;SDS011;7521;51.700;6.874;2023-07-31T09:35:51;4.00;;;2.53;;
14858;SDS011;7521;51.700;6.874;2023-07-31T09:39:02;3.03;;;2.17;;
14858;SDS011;7521;51.700;6.874;2023-07-31T09:42:08;3.73;;;2.37;;
14858;SDS011;7521;51.700;6.874;2023-07-31T09:45:14;4.83;;;2.33;;
14858;SDS011;7521;51.700;6.874;2023-07-31T09:48:19;5.40;;;2.30;;
14858;SDS011;7521;51.700;6.874;2023-07-31T09:51:27;3.07;;;2.20;;
14858;SDS011;7521;51.700;6.874;2023-07-31T09:54:33;2.77;;;2.13;;
14858;SDS011;7521;51.700;6.874;2023-07-31T09:57:39;2.97;;;2.37;;
14858;SDS011;7521;51.700;6.874;2023-07-31T10:00:45;4.67;;;2.20;;
14858;SDS011;7521;51.700;6.874;2023-07-31T10:03:50;2.17;;;1.73;;
14858;SDS011;7521;51.700;6.874;2023-07-31T10:06:55;4.13;;;2.43;;
14858;SDS011;7521;51.700;6.874;2023-07-31T10:10:02;4.67;;;2.10;;
14858;SDS011;7521;51.700;6.874;2023-07-31T10:13:09;2.93;;;2.20;;
14858;SDS011;7521;51.700;6.874;2023-07-31T10:16:14;4.93;;;2.60;;
14858;SDS011;7521;51.700;6.874;2023-07-31T10:19:21;4.83;;;2.30;;
14858;SDS011;7521;51.700;6.874;2023-07-31T10:22:27;3.10;;;2.37;;
14858;SDS011;7521;51.700;6.874;2023-07-31T10:25:35;4.07;;;2.70;;
14858;SDS011;7521;51.700;6.874;2023-07-31T10:28:40;5.77;;;2.70;;
14858;SDS011;7521;51.700;6.874;2023-07-31T10:31:46;4.47;;;2.50;;
14858;SDS011;7521;51.700;6.874;2023-07-31T10:34:52;4.73;;;2.90;;
14858;SDS011;7521;51.700;6.874;2023-07-31T10:38:08;4.90;;;3.20;;
14858;SDS011;7521;51.700;6.874;2023-07-31T10:41:14;4.87;;;3.07;;
14858;SDS011;7521;51.700;6.874;2023-07-31T10:44:19;8.15;;;3.03;;
14858;SDS011;7521;51.700;6.874;2023-07-31T10:47:27;10.40;;;3.83;;
14858;SDS011;7521;51.700;6.874;2023-07-31T10:50:55;6.00;;;3.23;;
14858;SDS011;7521;51.700;6.874;2023-07-31T10:54:12;5.30;;;3.63;;
14858;SDS011;7521;51.700;6.874;2023-07-31T10:57:34;5.97;;;3.47;;
14858;SDS011;7521;51.700;6.874;2023-07-31T11:00:41;8.67;;;4.33;;
14858;SDS011;7521;51.700;6.874;2023-07-31T11:03:47;7.20;;;4.10;;
14858;SDS011;7521;51.700;6.874;2023-07-31T11:07:02;6.07;;;3.97;;
14858;SDS011;7521;51.700;6.874;2023-07-31T11:10:25;6.47;;;4.23;;
14858;SDS011;7521;51.700;6.874;2023-07-31T11:13:40;11.30;;;4.40;;
14858;SDS011;7521;51.700;6.874;2023-07-31T11:16:51;7.13;;;4.17;;
14858;SDS011;7521;51.700;6.874;2023-07-31T11:19:59;5.83;;;3.87;;
14858;SDS011;7521;51.700;6.874;2023-07-31T11:23:08;6.30;;;3.90;;
14858;SDS011;7521;51.700;6.874;2023-07-31T11:26:14;5.27;;;3.30;;
14858;SDS011;7521;51.700;6.874;2023-07-31T11:29:19;5.80;;;3.73;;
14858;SDS011;7521;51.700;6.874;2023-07-31T11:32:25;8.90;;;3.93;;
14858;SDS011;7521;51.700;6.874;2023-07-31T11:35:31;4.90;;;3.10;;
14858;SDS011;7521;51.700;6.874;2023-07-31T11:38:37;6.13;;;3.50;;
14858;SDS011;7521;51.700;6.874;2023-07-31T11:41:42;5.78;;;3.10;;
14858;SDS011;7521;51.700;6.874;2023-07-31T11:44:47;3.30;;;2.87;;
14858;SDS011;7521;51.700;6.874;2023-07-31T11:47:53;5.07;;;3.10;;
14858;SDS011;7521;51.700;6.874;2023-07-31T11:51:02;3.53;;;2.63;;
14858;SDS011;7521;51.700;6.874;2023-07-31T11:54:08;4.43;;;2.90;;
14858;SDS011;7521;51.700;6.874;2023-07-31T11:57:13;5.90;;;2.83;;
14858;SDS011;7521;51.700;6.874;2023-07-31T12:00:19;4.20;;;2.50;;
14858;SDS011;7521;51.700;6.874;2023-07-31T12:03:24;5.40;;;2.60;;
14858;SDS011;7521;51.700;6.874;2023-07-31T12:06:36;4.67;;;2.40;;
14858;SDS011;7521;51.700;6.874;2023-07-31T12:09:53;3.13;;;2.40;;
14858;SDS011;7521;51.700;6.874;2023-07-31T12:16:05;3.50;;;2.53;;
14858;SDS011;7521;51.700;6.874;2023-07-31T12:19:10;3.87;;;2.40;;
14858;SDS011;7521;51.700;6.874;2023-07-31T12:22:15;6.63;;;2.73;;
14858;SDS011;7521;51.700;6.874;2023-07-31T12:25:21;4.73;;;2.90;;
14858;SDS011;7521;51.700;6.874;2023-07-31T12:28:26;3.53;;;2.80;;
14858;SDS011;7521;51.700;6.874;2023-07-31T12:31:31;5.85;;;2.95;;
14858;SDS011;7521;51.700;6.874;2023-07-31T12:34:44;3.17;;;2.37;;
14858;SDS011;7521;51.700;6.874;2023-07-31T12:37:49;4.17;;;2.40;;
14858;SDS011;7521;51.700;6.874;2023-07-31T12:40:55;4.20;;;2.60;;
14858;SDS011;7521;51.700;6.874;2023-07-31T12:44:00;4.40;;;2.70;;
14858;SDS011;7521;51.700;6.874;2023-07-31T12:47:05;2.92;;;2.00;;
14858;SDS011;7521;51.700;6.874;2023-07-31T12:50:10;3.33;;;2.40;;
14858;SDS011;7521;51.700;6.874;2023-07-31T12:53:15;3.53;;;2.27;;
14858;SDS011;7521;51.700;6.874;2023-07-31T12:56:21;4.47;;;2.30;;
14858;SDS011;7521;51.700;6.874;2023-07-31T12:59:26;4.93;;;2.70;;
14858;SDS011;7521;51.700;6.874;2023-07-31T13:02:31;3.60;;;2.47;;
14858;SDS011;7521;51.700;6.874;2023-07-31T13:05:36;3.40;;;2.42;;
14858;SDS011;7521;51.700;6.874;2023-07-31T13:08:41;4.93;;;2.30;;
14858;SDS011;7521;51.700;6.874;2023-07-31T13:11:47;3.30;;;2.20;;
14858;SDS011;7521;51.700;6.874;2023-07-31T13:14:52;3.65;;;2.50;;
14858;SDS011;7521;51.700;6.874;2023-07-31T13:17:57;2.97;;;2.30;;
14858;SDS011;7521;51.700;6.874;2023-07-31T13:21:02;2.63;;;2.10;;
14858;SDS011;7521;51.700;6.874;2023-07-31T13:24:08;6.43;;;2.27;;
14858;SDS011;7521;51.700;6.874;2023-07-31T13:27:13;3.15;;;2.00;;
14858;SDS011;7521;51.700;6.874;2023-07-31T13:30:19;3.27;;;2.20;;
14858;SDS011;7521;51.700;6.874;2023-07-31T13:33:24;3.10;;;2.40;;
14858;SDS011;7521;51.700;6.874;2023-07-31T13:36:29;4.25;;;2.28;;
14858;SDS011;7521;51.700;6.874;2023-07-31T13:39:34;4.20;;;2.30;;
14858;SDS011;7521;51.700;6.874;2023-07-31T13:42:39;3.33;;;2.10;;
14858;SDS011;7521;51.700;6.874;2023-07-31T13:45:45;3.17;;;2.60;;
14858;SDS011;7521;51.700;6.874;2023-07-31T13:48:50;5.05;;;3.10;;
14858;SDS011;7521;51.700;6.874;2023-07-31T13:51:55;4.90;;;3.37;;
14858;SDS011;7521;51.700;6.874;2023-07-31T13:55:00;5.60;;;2.93;;
14858;SDS011;7521;51.700;6.874;2023-07-31T13:58:05;3.80;;;3.03;;
14858;SDS011;7521;51.700;6.874;2023-07-31T14:01:11;7.57;;;3.53;;
14858;SDS011;7521;51.700;6.874;2023-07-31T14:04:16;4.70;;;3.43;;
14858;SDS011;7521;51.700;6.874;2023-07-31T14:07:22;4.67;;;3.00;;
14858;SDS011;7521;51.700;6.874;2023-07-31T14:10:27;5.27;;;3.73;;
14858;SDS011;7521;51.700;6.874;2023-07-31T14:13:33;3.78;;;3.15;;
14858;SDS011;7521;51.700;6.874;2023-07-31T14:16:38;5.17;;;3.10;;
14858;SDS011;7521;51.700;6.874;2023-07-31T14:19:43;5.22;;;3.38;;
14858;SDS011;7521;51.700;6.874;2023-07-31T14:22:48;5.88;;;3.80;;
14858;SDS011;7521;51.700;6.874;2023-07-31T14:25:53;7.25;;;3.65;;
14858;SDS011;7521;51.700;6.874;2023-07-31T14:28:58;6.22;;;3.80;;
14858;SDS011;7521;51.700;6.874;2023-07-31T14:32:04;6.37;;;4.30;;
14858;SDS011;7521;51.700;6.874;2023-07-31T14:35:09;4.80;;;3.20;;
14858;SDS011;7521;51.700;6.874;2023-07-31T14:38:14;4.80;;;3.58;;
14858;SDS011;7521;51.700;6.874;2023-07-31T14:41:20;4.60;;;3.47;;
14858;SDS011;7521;51.700;6.874;2023-07-31T14:44:25;4.50;;;3.03;;
14858;SDS011;7521;51.700;6.874;2023-07-31T14:47:30;5.97;;;3.43;;
14858;SDS011;7521;51.700;6.874;2023-07-31T14:50:37;5.70;;;3.50;;
14858;SDS011;7521;51.700;6.874;2023-07-31T14:53:42;6.20;;;3.70;;
14858;SDS011;7521;51.700;6.874;2023-07-31T14:56:47;5.67;;;3.77;;
14858;SDS011;7521;51.700;6.874;2023-07-31T14:59:52;9.30;;;3.83;;
14858;SDS011;7521;51.700;6.874;2023-07-31T15:02:58;5.30;;;3.33;;
14858;SDS011;7521;51.700;6.874;2023-07-31T15:06:03;8.02;;;4.20;;
14858;SDS011;7521;51.700;6.874;2023-07-31T15:09:10;4.97;;;3.67;;
14858;SDS011;7521;51.700;6.874;2023-07-31T15:12:15;6.45;;;3.95;;
14858;SDS011;7521;51.700;6.874;2023-07-31T15:15:20;7.47;;;4.23;;
14858;SDS011;7521;51.700;6.874;2023-07-31T15:18:25;6.50;;;3.57;;
14858;SDS011;7521;51.700;6.874;2023-07-31T15:21:31;6.32;;;4.15;;
14858;SDS011;7521;51.700;6.874;2023-07-31T15:24:36;8.00;;;4.50;;
14858;SDS011;7521;51.700;6.874;2023-07-31T15:27:41;6.50;;;4.47;;
14858;SDS011;7521;51.700;6.874;2023-07-31T15:30:46;5.47;;;4.50;;
14858;SDS011;7521;51.700;6.874;2023-07-31T15:33:52;6.27;;;4.57;;
14858;SDS011;7521;51.700;6.874;2023-07-31T15:36:57;8.40;;;4.63;;
14858;SDS011;7521;51.700;6.874;2023-07-31T15:40:02;10.70;;;5.60;;
14858;SDS011;7521;51.700;6.874;2023-07-31T15:43:07;9.20;;;5.23;;
14858;SDS011;7521;51.700;6.874;2023-07-31T15:46:13;6.07;;;4.93;;
14858;SDS011;7521;51.700;6.874;2023-07-31T15:49:18;8.77;;;5.97;;
14858;SDS011;7521;51.700;6.874;2023-07-31T15:52:23;7.18;;;5.30;;
14858;SDS011;7521;51.700;6.874;2023-07-31T15:55:28;8.90;;;4.97;;
14858;SDS011;7521;51.700;6.874;2023-07-31T15:58:34;8.25;;;5.15;;
14858;SDS011;7521;51.700;6.874;2023-07-31T16:01:39;8.13;;;5.15;;
14858;SDS011;7521;51.700;6.874;2023-07-31T16:04:44;8.30;;;5.43;;
14858;SDS011;7521;51.700;6.874;2023-07-31T16:07:49;6.72;;;5.03;;
14858;SDS011;7521;51.700;6.874;2023-07-31T16:10:54;9.47;;;5.57;;
14858;SDS011;7521;51.700;6.874;2023-07-31T16:14:01;8.17;;;4.53;;
14858;SDS011;7521;51.700;6.874;2023-07-31T16:17:07;7.47;;;5.00;;
14858;SDS011;7521;51.700;6.874;2023-07-31T16:20:12;8.67;;;4.93;;
14858;SDS011;7521;51.700;6.874;2023-07-31T16:23:17;8.73;;;5.07;;
14858;SDS011;7521;51.700;6.874;2023-07-31T16:26:22;6.93;;;4.70;;
14858;SDS011;7521;51.700;6.874;2023-07-31T16:29:27;6.67;;;5.07;;
14858;SDS011;7521;51.700;6.874;2023-07-31T16:32:33;6.03;;;4.13;;
14858;SDS011;7521;51.700;6.874;2023-07-31T16:35:38;5.63;;;4.50;;
14858;SDS011;7521;51.700;6.874;2023-07-31T16:38:43;7.53;;;4.38;;
14858;SDS011;7521;51.700;6.874;2023-07-31T16:41:48;6.63;;;4.47;;
14858;SDS011;7521;51.700;6.874;2023-07-31T16:44:53;7.03;;;4.93;;
14858;SDS011;7521;51.700;6.874;2023-07-31T16:47:59;8.27;;;4.60;;
14858;SDS011;7521;51.700;6.874;2023-07-31T16:51:04;8.03;;;4.87;;
14858;SDS011;7521;51.700;6.874;2023-07-31T16:54:09;7.83;;;4.37;;
14858;SDS011;7521;51.700;6.874;2023-07-31T16:57:15;8.13;;;4.90;;
14858;SDS011;7521;51.700;6.874;2023-07-31T17:00:20;7.90;;;4.77;;
14858;SDS011;7521;51.700;6.874;2023-07-31T17:03:28;7.13;;;4.57;;
14858;SDS011;7521;51.700;6.874;2023-07-31T17:06:34;7.03;;;4.43;;
14858;SDS011;7521;51.700;6.874;2023-07-31T17:09:39;7.80;;;3.90;;
14858;SDS011;7521;51.700;6.874;2023-07-31T17:12:44;4.97;;;3.80;;
14858;SDS011;7521;51.700;6.874;2023-07-31T17:15:50;6.25;;;4.05;;
14858;SDS011;7521;51.700;6.874;2023-07-31T17:18:55;7.10;;;3.77;;
14858;SDS011;7521;51.700;6.874;2023-07-31T17:22:00;6.97;;;4.25;;
14858;SDS011;7521;51.700;6.874;2023-07-31T17:25:05;5.30;;;3.47;;
14858;SDS011;7521;51.700;6.874;2023-07-31T17:28:11;5.03;;;3.37;;
14858;SDS011;7521;51.700;6.874;2023-07-31T17:31:16;5.37;;;3.80;;
14858;SDS011;7521;51.700;6.874;2023-07-31T17:34:21;6.33;;;3.67;;
14858;SDS011;7521;51.700;6.874;2023-07-31T17:37:26;5.50;;;3.83;;
14858;SDS011;7521;51.700;6.874;2023-07-31T17:40:32;5.27;;;3.87;;
14858;SDS011;7521;51.700;6.874;2023-07-31T17:43:37;4.70;;;3.60;;
14858;SDS011;7521;51.700;6.874;2023-07-31T17:46:42;5.25;;;3.10;;
14858;SDS011;7521;51.700;6.874;2023-07-31T17:49:47;8.60;;;3.90;;
14858;SDS011;7521;51.700;6.874;2023-07-31T17:52:53;7.17;;;3.53;;
14858;SDS011;7521;51.700;6.874;2023-07-31T17:55:58;7.50;;;2.90;;
14858;SDS011;7521;51.700;6.874;2023-07-31T17:59:04;5.13;;;3.05;;
14858;SDS011;7521;51.700;6.874;2023-07-31T18:02:09;4.43;;;2.60;;
14858;SDS011;7521;51.700;6.874;2023-07-31T18:05:15;5.20;;;2.83;;
14858;SDS011;7521;51.700;6.874;2023-07-31T18:08:20;3.63;;;2.93;;
14858;SDS011;7521;51.700;6.874;2023-07-31T18:11:25;4.50;;;3.23;;
14858;SDS011;7521;51.700;6.874;2023-07-31T18:14:31;4.30;;;2.83;;
14858;SDS011;7521;51.700;6.874;2023-07-31T18:17:39;4.73;;;2.93;;
14858;SDS011;7521;51.700;6.874;2023-07-31T18:20:44;2.57;;;1.87;;
14858;SDS011;7521;51.700;6.874;2023-07-31T18:23:50;5.37;;;2.53;;
14858;SDS011;7521;51.700;6.874;2023-07-31T18:26:55;2.85;;;2.00;;
14858;SDS011;7521;51.700;6.874;2023-07-31T18:30:00;3.88;;;2.00;;
14858;SDS011;7521;51.700;6.874;2023-07-31T18:33:06;4.10;;;1.40;;
14858;SDS011;7521;51.700;6.874;2023-07-31T18:36:11;2.30;;;1.50;;
14858;SDS011;7521;51.700;6.874;2023-07-31T18:39:16;2.58;;;1.65;;
14858;SDS011;7521;51.700;6.874;2023-07-31T18:42:22;2.20;;;1.50;;
14858;SDS011;7521;51.700;6.874;2023-07-31T18:45:27;3.87;;;1.60;;
14858;SDS011;7521;51.700;6.874;2023-07-31T18:48:32;1.95;;;1.60;;
14858;SDS011;7521;51.700;6.874;2023-07-31T18:51:37;3.10;;;1.47;;
14858;SDS011;7521;51.700;6.874;2023-07-31T18:54:43;3.27;;;1.70;;
14858;SDS011;7521;51.700;6.874;2023-07-31T18:57:48;2.90;;;1.40;;
14858;SDS011;7521;51.700;6.874;2023-07-31T19:00:54;2.83;;;1.73;;
14858;SDS011;7521;51.700;6.874;2023-07-31T19:03:59;1.73;;;1.42;;